Time;durP1;ratioP1;P1;durP2;ratioP2;P2;SDS_P1;SDS_P2;PMS_P1;PMS_P2;Temp;Humidity;BMP_temperature;BMP_pressure;BME280_temperature;BME280_humidity;BME280_pressure;Samples;Min_cycle;Max_cycle;Signal;HPM_P1;HPM_P2
2021/06/18 00:00:17;;;;;;;4.08;1.60;;;;;;;18.47;66.33;98069.07;1626139;88;21106;-64
2021/06/18 00:02:46;;;;;;;2.10;1.50;;;;;;;18.42;66.74;98067.50;1626065;87;21157;-63
2021/06/18 00:05:13;;;;;;;2.40;1.42;;;;;;;18.40;66.46;98070.84;1627374;87;21569;-68
2021/06/18 00:07:42;;;;;;;2.60;1.80;;;;;;;18.30;67.56;98069.83;1626802;87;21105;-63
2021/06/18 00:10:13;;;;;;;2.90;1.55;;;;;;;18.28;66.92;98065.77;1626547;88;21125;-63
2021/06/18 00:12:40;;;;;;;2.10;1.45;;;;;;;18.26;67.47;98063.82;1626503;87;21117;-63
2021/06/18 00:15:09;;;;;;;2.30;1.42;;;;;;;18.19;67.45;98058.51;1626520;87;21069;-63
2021/06/18 00:17:36;;;;;;;2.62;1.47;;;;;;;18.12;68.25;98063.39;1627153;87;21066;-63
2021/06/18 00:20:06;;;;;;;2.35;1.80;;;;;;;18.10;67.81;98057.49;1627027;87;21085;-63
2021/06/18 00:22:33;;;;;;;2.67;1.67;;;;;;;18.06;68.43;98055.74;1626668;88;21050;-63
2021/06/18 00:25:00;;;;;;;1.98;1.52;;;;;;;18.05;67.46;98050.70;1626562;87;21528;-63
2021/06/18 00:27:27;;;;;;;2.02;1.25;;;;;;;18.01;67.70;98043.69;1626669;88;21525;-63
2021/06/18 00:29:54;;;;;;;3.20;1.47;;;;;;;18.02;67.10;98046.11;1626964;87;21530;-61
2021/06/18 00:32:21;;;;;;;2.30;1.55;;;;;;;18.03;67.06;98038.55;1627019;87;21608;-61
2021/06/18 00:34:48;;;;;;;2.00;1.37;;;;;;;18.05;67.52;98041.50;1626666;87;21526;-62
2021/06/18 00:37:15;;;;;;;3.22;1.42;;;;;;;18.05;67.93;98041.50;1626506;88;21026;-62
2021/06/18 00:39:42;;;;;;;1.92;1.52;;;;;;;18.03;67.23;98044.30;1626315;88;21022;-60
2021/06/18 00:42:09;;;;;;;2.92;1.70;;;;;;;17.96;68.55;98044.25;1626560;88;21026;-62
2021/06/18 00:44:36;;;;;;;1.10;0.95;;;;;;;17.97;68.25;98044.56;1626638;88;21102;-60
2021/06/18 00:47:04;;;;;;;1.95;1.60;;;;;;;17.97;67.00;98040.63;1626880;87;20998;-62
2021/06/18 00:49:32;;;;;;;1.87;1.40;;;;;;;18.00;66.24;98039.42;1626592;87;21545;-61
2021/06/18 00:51:59;;;;;;;1.62;1.02;;;;;;;17.99;66.40;98039.11;1630114;87;21116;-60
2021/06/18 00:54:29;;;;;;;3.33;1.27;;;;;;;17.99;66.05;98035.98;1642631;87;21129;-61
2021/06/18 00:56:59;;;;;;;3.15;1.35;;;;;;;18.00;65.92;98026.29;1643013;87;21155;-61
2021/06/18 00:59:28;;;;;;;3.15;1.20;;;;;;;17.98;66.75;98025.65;1624066;87;21140;-63
2021/06/18 01:01:55;;;;;;;2.12;1.27;;;;;;;17.98;65.89;98026.96;1643084;87;21000;-62
2021/06/18 01:04:26;;;;;;;1.87;1.47;;;;;;;17.94;67.33;98026.53;1642768;87;21068;-64
2021/06/18 01:07:03;;;;;;;2.08;1.55;;;;;;;17.94;66.08;98027.02;1642970;87;21056;-61
2021/06/18 01:09:42;;;;;;;3.12;1.30;;;;;;;17.88;66.81;98025.97;1642584;87;21683;-62
2021/06/18 01:12:21;;;;;;;4.08;1.40;;;;;;;17.86;68.66;98025.33;1641429;86;21045;-62
2021/06/18 01:15:09;;;;;;;1.55;1.20;;;;;;;17.77;68.74;98015.97;1642720;87;21064;-62
2021/06/18 01:18:02;;;;;;;2.62;1.40;;;;;;;17.75;68.65;98021.89;1642517;87;21147;-64
2021/06/18 01:20:49;;;;;;;2.77;1.50;;;;;;;17.68;69.50;98020.19;1642805;87;21072;-63
2021/06/18 01:23:31;;;;;;;2.27;1.20;;;;;;;17.59;69.83;98023.95;1642546;87;21058;-63
2021/06/18 01:26:27;;;;;;;1.75;1.42;;;;;;;17.56;69.58;98026.40;1642947;87;21139;-63
2021/06/18 01:28:57;;;;;;;4.50;1.30;;;;;;;17.50;70.33;98027.97;1642281;87;21092;-63
2021/06/18 01:31:28;;;;;;;1.82;1.12;;;;;;;17.54;69.22;98033.66;1642984;87;21096;-63
2021/06/18 01:34:02;;;;;;;1.67;1.10;;;;;;;17.49;70.26;98028.95;1642618;86;21112;-63
2021/06/18 01:36:32;;;;;;;1.50;1.10;;;;;;;17.49;70.07;98020.27;1642761;87;21761;-63
2021/06/18 01:39:00;;;;;;;2.05;1.02;;;;;;;17.51;69.75;98018.25;1644661;87;21183;-63
2021/06/18 01:41:31;;;;;;;1.85;1.20;;;;;;;17.52;69.11;98017.27;1642860;87;21057;-63
2021/06/18 01:44:00;;;;;;;1.85;1.20;;;;;;;17.55;69.38;98019.02;1642889;87;21172;-62
2021/06/18 01:46:32;;;;;;;3.62;1.60;;;;;;;17.57;68.29;98021.50;1642902;87;21123;-62
2021/06/18 01:49:05;;;;;;;1.15;1.00;;;;;;;17.58;69.56;98024.95;1642526;87;21580;-63
2021/06/18 01:51:33;;;;;;;1.72;1.27;;;;;;;17.60;68.73;98026.87;1638890;87;21581;-62
2021/06/18 01:54:01;;;;;;;1.55;1.10;;;;;;;17.59;68.98;98020.80;1626323;88;21557;-62
2021/06/18 01:56:31;;;;;;;1.57;0.93;;;;;;;17.56;69.63;98021.15;1629680;88;21225;-63
2021/06/18 01:59:01;;;;;;;1.30;1.00;;;;;;;17.65;68.61;98024.02;1626350;87;21586;-62
2021/06/18 02:01:35;;;;;;;1.20;0.95;;;;;;;17.70;68.82;98020.84;1626347;87;21085;-62
2021/06/18 02:04:07;;;;;;;2.65;1.10;;;;;;;17.75;68.51;98024.52;1626546;87;21533;-65
2021/06/18 02:06:37;;;;;;;2.67;1.30;;;;;;;17.75;68.48;98020.58;1626372;88;21049;-63
2021/06/18 02:09:07;;;;;;;1.92;1.30;;;;;;;17.77;68.37;98017.28;1626321;88;21077;-62
2021/06/18 02:11:37;;;;;;;1.60;1.07;;;;;;;17.79;69.19;98024.95;1626287;87;21133;-62
2021/06/18 02:14:11;;;;;;;2.10;1.12;;;;;;;17.88;68.30;98025.16;1626160;87;21071;-62
2021/06/18 02:16:42;;;;;;;2.65;1.20;;;;;;;17.93;67.99;98023.61;1625984;88;21062;-62
2021/06/18 02:19:13;;;;;;;1.47;1.20;;;;;;;17.96;68.20;98018.47;1626435;88;21766;-64
2021/06/18 02:21:41;;;;;;;2.15;1.17;;;;;;;17.99;67.91;98023.34;1626483;87;21027;-62
2021/06/18 02:24:10;;;;;;;1.52;1.02;;;;;;;18.01;68.55;98018.73;1626471;88;21132;-62
2021/06/18 02:26:37;;;;;;;2.02;1.12;;;;;;;17.98;68.70;98019.08;1626446;88;21110;-62
2021/06/18 02:29:07;;;;;;;2.60;1.10;;;;;;;18.00;67.51;98016.59;1626282;88;21038;-62
2021/06/18 02:31:37;;;;;;;4.85;1.00;;;;;;;17.98;67.97;98013.83;1626280;88;21078;-66
2021/06/18 02:34:07;;;;;;;3.55;1.40;;;;;;;18.00;67.79;98014.47;1626472;87;21041;-63
2021/06/18 02:36:36;;;;;;;1.80;1.20;;;;;;;17.98;67.72;98013.83;1626230;87;21074;-63
2021/06/18 02:39:07;;;;;;;2.85;1.30;;;;;;;18.00;67.46;98008.72;1626234;88;21105;-62
2021/06/18 02:41:34;;;;;;;2.65;1.50;;;;;;;18.04;67.38;98015.72;1625944;88;21547;-62
2021/06/18 02:44:02;;;;;;;2.95;1.20;;;;;;;17.99;67.97;98010.20;1625992;87;21569;-62
2021/06/18 02:46:56;;;;;;;3.30;1.52;;;;;;;17.97;67.42;98011.73;1626321;87;21106;-62
2021/06/18 02:49:43;;;;;;;2.20;1.40;;;;;;;17.98;67.68;98008.57;1626592;87;21526;-62
2021/06/18 02:52:17;;;;;;;1.45;1.12;;;;;;;17.93;67.95;98007.84;1632516;87;21123;-62
2021/06/18 02:54:50;;;;;;;2.75;1.30;;;;;;;17.89;67.89;98011.03;1642918;87;21076;-63
2021/06/18 02:57:21;;;;;;;1.90;1.15;;;;;;;17.87;67.99;98006.45;1642755;86;21049;-62
2021/06/18 03:00:01;;;;;;;1.62;1.17;;;;;;;17.82;68.40;98003.59;1642732;87;21069;-63
2021/06/18 03:02:35;;;;;;;3.20;1.60;;;;;;;17.85;68.18;98007.97;1642892;87;20997;-63
2021/06/18 03:05:03;;;;;;;4.45;1.37;;;;;;;17.85;68.80;98007.16;1642557;86;21096;-62
2021/06/18 03:07:34;;;;;;;2.67;1.70;;;;;;;17.86;68.76;98010.06;1642680;87;21037;-63
2021/06/18 03:10:07;;;;;;;3.10;1.32;;;;;;;17.86;68.58;98016.63;1642754;87;21120;-63
2021/06/18 03:12:38;;;;;;;2.02;1.30;;;;;;;17.84;69.15;98016.84;1642780;87;21044;-63
2021/06/18 03:15:08;;;;;;;1.72;1.40;;;;;;;17.81;69.20;98015.09;1642701;87;21033;-63
2021/06/18 03:17:39;;;;;;;2.10;1.22;;;;;;;17.82;68.67;98018.04;1642757;87;21096;-63
2021/06/18 03:20:19;;;;;;;2.27;1.30;;;;;;;17.85;68.32;98018.97;1646356;86;21076;-63
2021/06/18 03:22:56;;;;;;;2.35;1.40;;;;;;;17.89;68.41;98022.85;1642406;86;21097;-62
2021/06/18 03:25:25;;;;;;;1.92;1.47;;;;;;;17.92;68.11;98022.47;1642786;87;21108;-63
2021/06/18 03:27:54;;;;;;;1.82;1.55;;;;;;;17.94;67.57;98019.14;1642736;87;21470;-63
2021/06/18 03:30:23;;;;;;;4.17;1.70;;;;;;;17.95;67.70;98012.89;1642598;87;21113;-63
2021/06/18 03:32:52;;;;;;;2.17;1.40;;;;;;;17.95;67.31;98015.02;1642865;87;21064;-63
2021/06/18 03:35:21;;;;;;;2.12;1.45;;;;;;;17.97;67.54;98017.48;1642673;86;21548;-61
2021/06/18 03:37:50;;;;;;;2.58;1.70;;;;;;;17.98;67.94;98013.83;1642747;86;21053;-61
2021/06/18 03:40:20;;;;;;;2.02;1.67;;;;;;;17.99;67.75;98014.97;1643908;87;21133;-62
2021/06/18 03:42:49;;;;;;;13.18;7.00;;;;;;;17.99;68.05;98017.59;1642880;87;21041;-65
2021/06/18 03:45:18;;;;;;;12.03;6.60;;;;;;;18.00;68.78;98021.86;1642745;87;21085;-65
2021/06/18 03:47:45;;;;;;;2.77;2.00;;;;;;;17.95;68.74;98022.91;1642540;87;21053;-65
2021/06/18 03:50:17;;;;;;;5.03;2.47;;;;;;;17.92;69.51;98026.41;1642133;87;21033;-62
2021/06/18 03:52:44;;;;;;;6.72;3.60;;;;;;;17.90;69.46;98027.91;1632343;87;21059;-65
2021/06/18 03:55:12;;;;;;;6.50;3.72;;;;;;;17.90;69.31;98025.27;1621467;87;21102;-64
2021/06/18 03:57:44;;;;;;;1.98;1.60;;;;;;;17.91;69.55;98026.09;1622121;87;21050;-64
2021/06/18 04:00:12;;;;;;;3.52;1.57;;;;;;;17.91;69.53;98020.84;1621357;85;21114;-64
2021/06/18 04:02:40;;;;;;;2.87;1.92;;;;;;;17.90;69.84;98023.14;1622137;87;21117;-65
2021/06/18 04:05:14;;;;;;;1.62;1.50;;;;;;;17.95;69.41;98024.72;1621888;88;21066;-66
2021/06/18 04:07:46;;;;;;;3.25;1.50;;;;;;;18.02;69.27;98025.09;1621976;87;21066;-65
2021/06/18 04:10:17;;;;;;;2.42;1.32;;;;;;;18.12;68.70;98022.66;1622046;88;21102;-64
2021/06/18 04:12:50;;;;;;;2.37;1.45;;;;;;;18.24;68.84;98029.03;1622233;87;21499;-64
2021/06/18 04:15:19;;;;;;;1.95;1.00;;;;;;;18.34;68.63;98030.83;1625368;88;21109;-64
2021/06/18 04:17:48;;;;;;;2.12;1.37;;;;;;;18.39;68.32;98034.52;1625497;88;21082;-63
2021/06/18 04:20:21;;;;;;;1.40;1.10;;;;;;;18.40;68.14;98035.34;1626820;88;21053;-65
2021/06/18 04:22:51;;;;;;;3.70;1.40;;;;;;;18.47;67.79;98034.89;1627158;87;21101;-63
2021/06/18 04:25:18;;;;;;;1.85;1.22;;;;;;;18.48;67.89;98032.05;1621732;87;21309;-64
2021/06/18 04:27:46;;;;;;;2.47;1.35;;;;;;;18.63;67.24;98024.12;1625819;88;21078;-64
2021/06/18 04:30:16;;;;;;;0.85;0.75;;;;;;;18.66;67.24;98013.70;1628074;86;21545;-64
2021/06/18 04:32:44;;;;;;;1.25;1.00;;;;;;;18.79;66.87;98025.11;1627592;87;21087;-64
2021/06/18 04:35:12;;;;;;;2.50;1.32;;;;;;;18.91;66.46;98020.13;1622125;87;21031;-64
2021/06/18 04:37:41;;;;;;;2.42;1.70;;;;;;;18.95;67.09;98026.13;1622203;87;21487;-64
2021/06/18 04:40:10;;;;;;;1.67;1.25;;;;;;;18.77;67.29;98029.77;1621877;87;21094;-64
2021/06/18 04:42:37;;;;;;;2.87;1.72;;;;;;;18.97;67.40;98025.94;1622099;87;21058;-64
2021/06/18 04:45:08;;;;;;;1.77;1.12;;;;;;;19.03;66.90;98026.47;1621868;87;21169;-64
2021/06/18 04:47:36;;;;;;;2.22;1.60;;;;;;;19.09;66.75;98028.34;1622054;87;21538;-64
2021/06/18 04:50:05;;;;;;;1.80;1.10;;;;;;;19.14;66.43;98033.84;1622022;87;21554;-63
2021/06/18 04:52:33;;;;;;;1.87;1.30;;;;;;;19.24;66.56;98039.55;1628637;87;21045;-63
2021/06/18 04:55:01;;;;;;;2.33;1.37;;;;;;;19.33;66.05;98044.16;1642913;86;21148;-63
2021/06/18 04:57:28;;;;;;;2.42;1.35;;;;;;;19.36;65.78;98039.80;1642933;87;21494;-63
2021/06/18 04:59:56;;;;;;;2.58;1.67;;;;;;;19.29;65.58;98043.73;1642810;86;21885;-63
2021/06/18 05:02:23;;;;;;;3.98;1.77;;;;;;;19.24;65.87;98044.81;1642641;86;21044;-63
2021/06/18 05:04:50;;;;;;;2.25;1.60;;;;;;;19.29;65.80;98044.23;1642155;86;21557;-63
2021/06/18 05:07:17;;;;;;;2.92;1.40;;;;;;;19.29;66.02;98045.55;1642832;86;21030;-63
2021/06/18 05:09:44;;;;;;;3.25;1.82;;;;;;;19.24;65.84;98050.58;1643242;87;21113;-63
2021/06/18 05:12:12;;;;;;;2.65;1.50;;;;;;;19.40;65.97;98047.13;1643010;87;21026;-63
2021/06/18 05:14:38;;;;;;;2.20;1.70;;;;;;;19.41;65.76;98040.03;1643102;86;21073;-63
2021/06/18 05:17:05;;;;;;;2.10;1.70;;;;;;;19.38;66.23;98041.72;1642702;87;21641;-64
2021/06/18 05:19:32;;;;;;;3.00;1.82;;;;;;;19.43;66.04;98040.17;1642888;87;20997;-64
2021/06/18 05:21:59;;;;;;;3.77;1.90;;;;;;;19.54;66.43;98043.23;1642922;87;21518;-65
2021/06/18 05:24:27;;;;;;;3.50;1.87;;;;;;;19.59;66.12;98039.52;1642809;87;21275;-64
2021/06/18 05:26:53;;;;;;;3.62;2.47;;;;;;;19.64;66.05;98039.74;1642962;86;21030;-64
2021/06/18 05:29:20;;;;;;;3.20;2.17;;;;;;;19.63;66.63;98040.74;1642708;87;21144;-64
2021/06/18 05:31:47;;;;;;;13.58;1.82;;;;;;;19.58;66.53;98034.74;1642800;87;21073;-63
2021/06/18 05:34:14;;;;;;;2.75;1.65;;;;;;;19.60;66.51;98038.51;1642917;87;21171;-63
2021/06/18 05:36:44;;;;;;;2.35;1.80;;;;;;;19.57;66.66;98037.06;1642733;86;21235;-65
2021/06/18 05:39:12;;;;;;;3.83;2.42;;;;;;;19.56;66.78;98037.28;1642856;87;21121;-63
2021/06/18 05:41:39;;;;;;;2.30;1.55;;;;;;;19.60;66.77;98035.37;1643015;87;21462;-64
2021/06/18 05:44:06;;;;;;;3.10;1.57;;;;;;;19.72;66.09;98034.30;1642871;86;21132;-63
2021/06/18 05:46:34;;;;;;;3.30;1.82;;;;;;;19.87;65.49;98028.34;1642698;87;21061;-63
2021/06/18 05:49:01;;;;;;;6.12;1.80;;;;;;;20.00;64.90;98030.98;1642700;87;21490;-63
2021/06/18 05:51:28;;;;;;;4.33;2.05;;;;;;;20.16;64.86;98029.29;1642680;87;21631;-63
2021/06/18 05:53:55;;;;;;;2.60;1.70;;;;;;;20.35;64.31;98029.02;1642904;87;21312;-63
2021/06/18 05:56:23;;;;;;;4.45;2.00;;;;;;;20.50;63.41;98034.11;1642886;86;21046;-63
2021/06/18 05:58:50;;;;;;;4.10;1.72;;;;;;;20.63;62.70;98044.64;1642957;87;21065;-63
2021/06/18 06:01:17;;;;;;;2.85;1.85;;;;;;;20.63;62.48;98040.18;1642991;87;21097;-63
2021/06/18 06:03:43;;;;;;;2.90;1.47;;;;;;;20.77;62.43;98035.21;1643300;87;21105;-64
2021/06/18 06:06:10;;;;;;;4.53;2.30;;;;;;;20.70;62.54;98031.74;1642996;86;21510;-63
2021/06/18 06:08:38;;;;;;;2.33;1.70;;;;;;;20.73;62.76;98033.19;1642669;87;21105;-63
2021/06/18 06:11:05;;;;;;;1.90;1.62;;;;;;;20.78;62.81;98035.48;1642932;87;21489;-64
2021/06/18 06:13:32;;;;;;;3.75;2.42;;;;;;;20.86;62.68;98045.02;1642467;86;21014;-63
2021/06/18 06:15:59;;;;;;;3.70;1.80;;;;;;;20.85;62.91;98044.73;1642809;87;21573;-64
2021/06/18 06:18:26;;;;;;;3.75;2.00;;;;;;;20.77;63.14;98049.72;1642998;86;21510;-64
2021/06/18 06:20:52;;;;;;;6.70;1.70;;;;;;;20.76;63.34;98045.45;1642950;87;21486;-64
2021/06/18 06:23:19;;;;;;;3.65;2.30;;;;;;;20.80;63.44;98045.86;1642702;86;21565;-63
2021/06/18 06:25:46;;;;;;;4.90;1.80;;;;;;;20.74;63.78;98042.70;1642648;87;21044;-64
2021/06/18 06:28:13;;;;;;;2.70;1.80;;;;;;;20.74;63.42;98042.19;1642950;86;21542;-64
2021/06/18 06:30:41;;;;;;;2.65;1.95;;;;;;;20.69;64.47;98042.02;1642848;86;21529;-63
2021/06/18 06:33:07;;;;;;;2.17;1.60;;;;;;;20.66;64.99;98035.81;1642782;86;21159;-64
2021/06/18 06:35:34;;;;;;;3.27;1.77;;;;;;;20.65;65.43;98032.07;1642672;86;21080;-63
2021/06/18 06:38:01;;;;;;;3.98;2.20;;;;;;;20.70;65.45;98033.59;1642875;86;21549;-64
2021/06/18 06:40:28;;;;;;;2.22;1.80;;;;;;;20.74;66.24;98030.82;1642311;87;21581;-63
2021/06/18 06:42:55;;;;;;;3.20;2.00;;;;;;;20.81;65.85;98025.87;1642721;86;21045;-63
2021/06/18 06:45:22;;;;;;;2.72;1.65;;;;;;;20.96;64.92;98019.02;1642626;87;21131;-63
2021/06/18 06:47:52;;;;;;;4.67;2.40;;;;;;;21.03;65.48;98017.67;1642837;87;21041;-63
2021/06/18 06:50:19;;;;;;;3.05;2.10;;;;;;;21.03;65.09;98025.09;1642537;86;21030;-64
2021/06/18 06:52:46;;;;;;;4.75;2.27;;;;;;;21.10;64.68;98020.60;1640596;87;21069;-64
2021/06/18 06:55:14;;;;;;;5.00;2.42;;;;;;;21.22;64.79;98026.08;1621909;88;21086;-64
2021/06/18 06:57:42;;;;;;;3.90;2.27;;;;;;;21.17;64.38;98018.77;1622077;88;21062;-64
2021/06/18 07:00:11;;;;;;;2.40;2.02;;;;;;;21.29;63.67;98025.54;1622009;87;21062;-64
2021/06/18 07:02:38;;;;;;;3.00;1.87;;;;;;;21.45;62.95;98025.58;1622017;87;21512;-63
2021/06/18 07:05:06;;;;;;;2.70;2.15;;;;;;;21.62;62.42;98025.41;1622131;87;21023;-63
2021/06/18 07:07:33;;;;;;;3.45;2.10;;;;;;;21.73;62.05;98021.59;1621919;87;21050;-63
2021/06/18 07:10:00;;;;;;;3.58;1.80;;;;;;;21.88;61.95;98021.29;1621797;87;21603;-63
2021/06/18 07:12:27;;;;;;;3.95;1.62;;;;;;;22.01;61.97;98022.57;1622084;88;21553;-63
2021/06/18 07:14:56;;;;;;;2.77;1.80;;;;;;;22.29;60.89;98016.88;1621852;87;21095;-63
2021/06/18 07:17:24;;;;;;;10.20;1.90;;;;;;;22.69;59.93;98015.52;1622214;87;21030;-64
2021/06/18 07:19:53;;;;;;;5.62;2.62;;;;;;;;;;1622218;87;21600;-64
2021/06/18 07:22:21;;;;;;;3.60;1.65;;;;;;;22.98;58.20;98013.20;1622112;87;21550;-63
2021/06/18 07:24:50;;;;;;;3.70;1.30;;;;;;;22.99;58.13;98009.02;1622128;87;21089;-64
2021/06/18 07:27:17;;;;;;;3.27;1.82;;;;;;;23.24;57.81;98016.06;1622053;87;21091;-63
2021/06/18 07:29:45;;;;;;;6.70;1.62;;;;;;;23.28;57.28;98011.43;1621766;87;21207;-63
2021/06/18 07:32:12;;;;;;;5.92;1.90;;;;;;;23.54;56.77;98005.82;1622371;88;21448;-64
2021/06/18 07:34:39;;;;;;;2.12;1.30;;;;;;;23.66;56.55;98010.39;1621643;88;21031;-63
2021/06/18 07:37:06;;;;;;;2.35;1.60;;;;;;;23.87;56.08;98009.88;1622046;87;21058;-63
2021/06/18 07:39:33;;;;;;;1.70;1.60;;;;;;;23.92;55.93;98002.05;1622115;87;21554;-64
2021/06/18 07:42:01;;;;;;;2.62;1.75;;;;;;;24.08;55.23;97999.54;1622084;88;21038;-64
2021/06/18 07:44:28;;;;;;;2.70;2.02;;;;;;;24.26;54.39;97995.23;1622131;87;21074;-64
2021/06/18 07:46:55;;;;;;;2.05;1.40;;;;;;;24.48;54.39;97994.95;1622348;88;21553;-64
2021/06/18 07:49:21;;;;;;;3.05;1.90;;;;;;;24.68;54.04;97990.63;1621885;87;21535;-63
2021/06/18 07:51:48;;;;;;;1.85;1.67;;;;;;;24.87;53.34;97980.19;1622103;87;21039;-64
2021/06/18 07:54:15;;;;;;;2.45;1.80;;;;;;;25.03;53.32;97986.92;1633520;87;21549;-64
2021/06/18 07:56:45;;;;;;;2.17;1.82;;;;;;;25.18;52.37;97979.78;1641740;87;21598;-63
2021/06/18 07:59:12;;;;;;;2.35;1.65;;;;;;;25.31;52.12;97972.87;1641918;87;21123;-64
2021/06/18 08:01:40;;;;;;;2.35;1.60;;;;;;;25.58;51.10;97975.80;1641613;87;21580;-64
2021/06/18 08:04:06;;;;;;;1.45;1.20;;;;;;;25.81;50.76;97973.03;1641757;87;21115;-64
2021/06/18 08:06:35;;;;;;;3.22;1.65;;;;;;;25.99;48.92;97978.12;1641668;87;21192;-64
2021/06/18 08:09:05;;;;;;;12.13;7.17;;;;;;;26.10;48.34;97974.32;1641734;87;21058;-64
2021/06/18 08:11:32;;;;;;;3.60;1.90;;;;;;;26.35;48.21;97978.21;1641940;87;21157;-64
2021/06/18 08:13:59;;;;;;;3.80;2.55;;;;;;;26.45;47.24;97970.92;1642008;87;21489;-64
2021/06/18 08:16:26;;;;;;;4.33;1.87;;;;;;;26.57;47.74;97978.81;1641315;87;21089;-64
2021/06/18 08:18:53;;;;;;;2.35;1.95;;;;;;;26.78;47.95;97968.19;1641449;87;21052;-64
2021/06/18 08:21:22;;;;;;;2.10;1.80;;;;;;;27.01;47.38;97967.17;1641733;87;21113;-64
2021/06/18 08:23:49;;;;;;;4.55;2.05;;;;;;;27.11;47.33;97959.84;1641563;87;21144;-64
2021/06/18 08:26:15;;;;;;;5.62;2.80;;;;;;;27.21;46.44;97961.28;1641749;87;21165;-64
2021/06/18 08:28:42;;;;;;;3.92;2.80;;;;;;;27.11;43.35;97955.33;1641355;87;21505;-63
2021/06/18 08:31:09;;;;;;;2.08;1.65;;;;;;;26.83;43.61;97954.97;1641593;87;21617;-63
2021/06/18 08:33:37;;;;;;;2.40;1.82;;;;;;;27.13;44.28;97951.06;1641640;87;21037;-64
2021/06/18 08:36:05;;;;;;;3.05;1.65;;;;;;;27.12;43.67;97946.80;1641711;87;21065;-64
2021/06/18 08:38:39;;;;;;;3.60;1.90;;;;;;;27.27;43.80;97956.31;1641594;87;21073;-64
2021/06/18 08:41:03;;;;;;;2.85;2.00;;;;;;;27.51;43.96;97948.31;1640346;87;21136;-63
2021/06/18 08:43:32;;;;;;;2.05;1.70;;;;;;;27.71;43.12;97951.19;1641382;87;21669;-64
2021/06/18 08:46:02;;;;;;;2.27;1.87;;;;;;;27.77;41.57;97946.72;1641414;87;21069;-64
2021/06/18 08:48:33;;;;;;;2.65;1.55;;;;;;;27.81;41.68;97946.48;1641185;87;21153;-64
2021/06/18 08:51:03;;;;;;;2.12;1.65;;;;;;;27.78;41.46;97945.67;1641490;87;21583;-64
2021/06/18 08:53:35;;;;;;;1.25;1.15;;;;;;;28.07;42.12;97942.16;1641610;87;21072;-63
2021/06/18 08:56:05;;;;;;;1.67;1.50;;;;;;;28.29;42.04;97942.36;1641344;87;21553;-64
2021/06/18 08:58:32;;;;;;;2.00;1.05;;;;;;;28.40;41.90;97930.42;1641329;87;21101;-64
2021/06/18 09:00:59;;;;;;;1.70;1.17;;;;;;;28.46;40.70;97928.85;1640553;87;21101;-63
2021/06/18 09:03:45;;;;;;;3.05;1.20;;;;;;;28.57;39.51;97925.70;1641603;87;21101;-64
2021/06/18 09:06:24;;;;;;;;;;;;;;;28.64;39.79;97922.27;1643950;87;21125;-64
2021/06/18 09:09:21;;;;;;;1.70;1.20;;;;;;;28.75;40.54;97919.97;1641766;87;20132;-63
2021/06/18 09:12:01;;;;;;;2.22;1.12;;;;;;;28.87;41.76;97915.19;1641451;87;21634;-63
2021/06/18 09:14:38;;;;;;;2.42;1.47;;;;;;;28.96;40.84;97916.30;1641679;87;21196;-64
2021/06/18 09:17:23;;;;;;;1.67;1.07;;;;;;;29.02;41.08;97905.11;1641370;87;21133;-64
2021/06/18 09:19:53;;;;;;;2.50;1.27;;;;;;;29.16;40.29;97900.34;1641061;84;21086;-64
2021/06/18 09:22:31;;;;;;;2.10;1.57;;;;;;;29.23;39.62;97901.42;1641557;87;21060;-63
2021/06/18 09:25:02;;;;;;;2.15;1.60;;;;;;;28.70;39.30;97887.34;1641665;87;21062;-63
2021/06/18 09:27:39;;;;;;;1.45;1.30;;;;;;;29.09;39.87;97894.97;1641640;87;21042;-64
2021/06/18 09:30:34;;;;;;;2.30;1.37;;;;;;;29.22;39.34;97887.23;1642122;87;21136;-64
2021/06/18 09:33:04;;;;;;;4.05;1.80;;;;;;;29.34;36.64;97888.36;1641255;87;21069;-66
2021/06/18 09:35:33;;;;;;;1.17;1.02;;;;;;;29.40;37.50;97887.33;1641664;87;21046;-64
2021/06/18 09:38:04;;;;;;;2.60;1.20;;;;;;;29.53;37.01;97890.80;1642853;87;21045;-64
2021/06/18 09:40:31;;;;;;;3.80;1.70;;;;;;;29.64;36.65;97880.40;1641298;87;21510;-64
2021/06/18 09:43:03;;;;;;;1.67;1.52;;;;;;;29.27;36.87;97885.11;1641473;87;21565;-64
2021/06/18 09:45:33;;;;;;;2.00;1.40;;;;;;;29.52;36.91;97888.41;1641459;87;21141;-64
2021/06/18 09:48:16;;;;;;;2.17;1.30;;;;;;;29.74;36.88;97889.48;1641258;87;21141;-64
2021/06/18 09:50:47;;;;;;;2.17;1.20;;;;;;;30.00;35.84;97886.56;1641346;87;21117;-64
2021/06/18 09:53:23;;;;;;;2.05;1.40;;;;;;;30.16;35.17;97888.16;1640745;86;21234;-64
2021/06/18 09:56:10;;;;;;;1.75;1.45;;;;;;;30.34;36.46;97887.33;1641747;87;21041;-64
2021/06/18 09:58:41;;;;;;;2.08;1.40;;;;;;;30.26;34.67;97887.34;1641629;87;21141;-64
2021/06/18 10:01:28;;;;;;;1.60;1.30;;;;;;;30.76;36.52;97879.73;1641531;87;21048;-68
2021/06/18 10:04:14;;;;;;;4.20;1.45;;;;;;;30.98;33.74;97886.89;1641560;87;21208;-65
2021/06/18 10:06:42;;;;;;;1.45;1.20;;;;;;;31.31;35.39;97880.02;1641429;87;20997;-67
2021/06/18 10:09:12;;;;;;;3.02;1.40;;;;;;;31.73;35.09;97884.84;1641457;87;21612;-64
2021/06/18 10:11:42;;;;;;;1.72;1.52;;;;;;;31.91;31.91;97879.31;1641291;87;21044;-64
2021/06/18 10:14:08;;;;;;;2.62;1.60;;;;;;;31.51;32.66;97884.45;1641238;87;21037;-64
2021/06/18 10:16:35;;;;;;;1.60;1.50;;;;;;;32.07;34.58;97880.81;1641494;87;21098;-64
2021/06/18 10:19:03;;;;;;;1.75;1.00;;;;;;;32.49;32.52;97888.17;1641467;87;21212;-72
2021/06/18 10:21:34;;;;;;;1.62;1.42;;;;;;;32.77;30.85;97869.06;1641515;87;21116;-73
2021/06/18 10:24:05;;;;;;;1.60;1.50;;;;;;;32.77;32.06;97875.79;1641584;87;21176;-72
2021/06/18 10:26:34;;;;;;;1.57;1.20;;;;;;;32.58;30.74;97869.00;1641672;87;21037;-71
2021/06/18 10:29:03;;;;;;;1.55;1.20;;;;;;;32.99;31.60;97861.81;1641098;87;21152;-62
2021/06/18 10:31:36;;;;;;;1.70;1.37;;;;;;;33.14;31.66;97864.33;1641505;87;21052;-62
2021/06/18 10:34:10;;;;;;;2.02;1.17;;;;;;;33.50;30.10;97856.53;1641365;87;21076;-63
2021/06/18 10:36:37;;;;;;;1.52;1.20;;;;;;;33.84;30.98;97850.34;1641338;87;21077;-61
2021/06/18 10:39:15;;;;;;;3.30;1.60;;;;;;;34.17;29.15;97843.03;1641495;87;21747;-63
2021/06/18 10:41:53;;;;;;;1.77;1.67;;;;;;;34.51;30.00;97850.77;1641324;87;21600;-62
2021/06/18 10:44:44;;;;;;;1.20;1.10;;;;;;;34.44;27.81;97846.30;1641551;87;21620;-63
2021/06/18 10:47:34;;;;;;;2.12;1.32;;;;;;;35.06;28.64;97844.78;1620830;87;21045;-64
2021/06/18 10:50:02;;;;;;;1.25;1.15;;;;;;;34.77;28.29;97847.82;1641067;87;21162;-62
2021/06/18 10:52:43;;;;;;;2.00;1.45;;;;;;;34.99;27.20;97845.72;1641137;87;21057;-63
2021/06/18 10:55:11;;;;;;;1.95;1.77;;;;;;;33.95;29.09;97841.53;1641320;87;21121;-63
2021/06/18 10:57:53;;;;;;;2.17;1.30;;;;;;;34.77;27.67;97838.38;1641570;87;21033;-63
2021/06/18 11:00:23;;;;;;;1.42;1.32;;;;;;;35.08;27.23;97842.56;1641306;87;22609;-62
2021/06/18 11:02:50;;;;;;;2.45;1.42;;;;;;;35.58;27.16;97839.26;1641403;87;21128;-62
2021/06/18 11:05:26;;;;;;;1.50;1.30;;;;;;;35.93;26.66;97835.70;1641534;87;21168;-62
2021/06/18 11:08:18;;;;;;;1.57;1.22;;;;;;;36.09;25.76;97836.93;1641005;87;21085;-63
2021/06/18 11:10:45;;;;;;;3.10;2.05;;;;;;;36.07;24.85;97835.63;1641691;87;21581;-62
2021/06/18 11:13:15;;;;;;;1.87;1.77;;;;;;;36.18;24.43;97826.72;1640796;87;21192;-63
2021/06/18 11:15:46;;;;;;;3.85;2.60;;;;;;;35.78;25.85;97829.89;1641563;87;21051;-63
2021/06/18 11:18:18;;;;;;;12.53;11.08;;;;;;;34.40;26.80;97825.88;1641009;87;21148;-64
2021/06/18 11:20:50;;;;;;;16.17;10.82;;;;;;;35.97;26.11;97823.16;1637518;87;21165;-62
2021/06/18 11:23:24;;;;;;;4.80;2.70;;;;;;;36.81;26.96;97820.89;1640786;87;21045;-64
2021/06/18 11:29:27;;;;;;;1.90;1.72;;;;;;;37.85;26.00;97811.65;1642868;87;21065;-64
2021/06/18 11:36:00;;;;;;;1.87;1.30;;;;;;;38.05;24.00;97806.91;1642927;87;21162;-63
2021/06/18 11:42:00;;;;;;;2.00;1.80;;;;;;;37.48;21.94;97796.30;1642866;87;21133;-63
2021/06/18 11:47:57;;;;;;;1.75;1.52;;;;;;;37.97;21.62;97794.19;1642924;87;21096;-63
2021/06/18 11:53:56;;;;;;;1.98;1.40;;;;;;;37.84;22.96;97789.16;1643051;87;21202;-63
2021/06/18 11:59:52;;;;;;;1.37;1.27;;;;;;;38.40;21.85;97791.31;1653700;85;21123;-63
2021/06/18 12:02:30;;;;;;;2.17;1.60;;;;;;;38.45;21.97;97786.48;1661031;86;21137;-63
2021/06/18 12:05:17;;;;;;;1.98;1.50;;;;;;;38.93;21.75;97783.32;1660436;86;21058;-63
2021/06/18 12:07:43;;;;;;;1.70;1.60;;;;;;;39.05;21.11;97777.16;1660470;85;21253;-66
2021/06/18 12:10:27;;;;;;;1.65;1.42;;;;;;;38.99;21.07;97788.56;1660454;85;21024;-65